createdAt,value
2023-01-29T00:03:45.532Z,-1.11
2023-01-29T00:08:47.517Z,-1.11
2023-01-29T00:13:53.770Z,-1.12
2023-01-29T00:18:55.589Z,-1.14
2023-01-29T00:23:57.401Z,-1.17
2023-01-29T00:29:00.742Z,-1.22
2023-01-29T00:34:04.278Z,-1.21
2023-01-29T00:39:10.917Z,-1.21
2023-01-29T00:44:31.866Z,-1.23
2023-01-29T00:49:33.568Z,-1.29
2023-01-29T00:54:36.269Z,-1.33
2023-01-29T00:59:38.173Z,-1.34
2023-01-29T01:04:40.104Z,-1.40
2023-01-29T01:10:00.713Z,-1.45
2023-01-29T01:15:02.507Z,-1.48
2023-01-29T01:20:05.385Z,-1.51
2023-01-29T01:25:07.450Z,-1.54
2023-01-29T01:30:13.025Z,-1.51
2023-01-29T01:35:15.176Z,-1.48
2023-01-29T01:40:20.165Z,-1.51
2023-01-29T01:45:31.449Z,-1.56
2023-01-29T01:50:38.664Z,-1.64
2023-01-29T01:55:59.239Z,-1.68
2023-01-29T02:01:01.724Z,-1.70
2023-01-29T02:06:23.227Z,-1.78
2023-01-29T02:11:25.387Z,-1.88
2023-01-29T02:16:27.383Z,-1.89
2023-01-29T02:21:55.066Z,-1.87
2023-01-29T02:27:12.441Z,-1.83
2023-01-29T02:32:26.418Z,-1.87
2023-01-29T02:38:14.319Z,-1.90
2023-01-29T02:43:51.713Z,-1.91
2023-01-29T02:49:16.338Z,-1.87
2023-01-29T02:54:31.355Z,-1.84
2023-01-29T02:59:39.398Z,-1.80
2023-01-29T03:04:47.015Z,-1.80
2023-01-29T03:09:52.075Z,-1.81
2023-01-29T03:15:12.103Z,-1.76
2023-01-29T03:20:19.616Z,-1.70
2023-01-29T03:25:42.618Z,-1.64
2023-01-29T03:31:10.793Z,-1.62
2023-01-29T03:36:38.066Z,-1.63
2023-01-29T03:41:50.398Z,-1.65
2023-01-29T03:47:13.703Z,-1.63
2023-01-29T03:52:18.570Z,-1.55
2023-01-29T03:57:31.805Z,-1.48
2023-01-29T04:02:49.244Z,-1.44
2023-01-29T04:07:57.260Z,-1.43
2023-01-29T04:13:04.278Z,-1.47
2023-01-29T04:18:06.849Z,-1.45
2023-01-29T04:23:25.799Z,-1.41
2023-01-29T04:28:50.408Z,-1.43
2023-01-29T04:34:26.131Z,-1.45
2023-01-29T04:39:40.111Z,-1.48
2023-01-29T04:44:54.444Z,-1.47
2023-01-29T04:50:06.605Z,-1.40
2023-01-29T04:55:21.407Z,-1.34
2023-01-29T05:00:46.667Z,-1.34
2023-01-29T05:05:50.577Z,-1.36
2023-01-29T05:10:54.719Z,-1.38
2023-01-29T05:15:59.592Z,-1.35
2023-01-29T05:21:05.944Z,-1.32
2023-01-29T05:26:07.675Z,-1.32
2023-01-29T05:31:09.763Z,-1.34
2023-01-29T05:36:11.509Z,-1.38
2023-01-29T05:41:13.279Z,-1.40
2023-01-29T05:46:15.003Z,-1.36
2023-01-29T05:51:16.738Z,-1.34
2023-01-29T05:56:18.654Z,-1.33
2023-01-29T06:01:25.139Z,-1.37
2023-01-29T06:06:26.869Z,-1.36
2023-01-29T06:11:29.344Z,-1.34
2023-01-29T06:16:31.168Z,-1.33
2023-01-29T06:21:32.892Z,-1.34
2023-01-29T06:26:34.689Z,-1.37
2023-01-29T06:31:39.231Z,-1.38
2023-01-29T06:36:41.959Z,-1.39
2023-01-29T06:41:45.365Z,-1.44
2023-01-29T06:46:47.016Z,-1.54
2023-01-29T06:51:48.709Z,-1.62
2023-01-29T06:56:51.996Z,-1.60
2023-01-29T07:01:53.685Z,-1.51
2023-01-29T07:06:55.525Z,-1.50
2023-01-29T07:11:57.283Z,-1.51
2023-01-29T07:16:59.117Z,-1.47
2023-01-29T07:22:02.564Z,-1.41
2023-01-29T07:27:04.394Z,-1.37
2023-01-29T07:32:07.889Z,-1.38
2023-01-29T07:37:09.533Z,-1.37
2023-01-29T07:42:11.228Z,-1.31
2023-01-29T07:47:13.021Z,-1.28
2023-01-29T07:52:14.657Z,-1.32
2023-01-29T07:57:16.337Z,-1.32
2023-01-29T08:02:18.068Z,-1.00
2023-01-29T08:07:19.747Z,-0.07
2023-01-29T08:12:21.473Z,1.07
2023-01-29T08:17:23.187Z,2.17
2023-01-29T08:22:24.943Z,3.07
2023-01-29T08:27:26.787Z,3.73
2023-01-29T08:32:28.478Z,3.84
2023-01-29T08:37:30.167Z,3.46
2023-01-29T08:42:31.882Z,2.98
2023-01-29T08:47:33.605Z,2.45
2023-01-29T08:52:35.343Z,1.94
2023-01-29T08:57:38.672Z,1.54
2023-01-29T09:02:40.484Z,1.29
2023-01-29T09:07:42.464Z,1.18
2023-01-29T09:12:44.220Z,1.22
2023-01-29T09:17:46.841Z,1.31
2023-01-29T09:22:50.623Z,1.39
2023-01-29T09:27:54.336Z,1.51
2023-01-29T09:32:56.082Z,1.62
2023-01-29T09:37:57.989Z,1.59
2023-01-29T09:43:16.790Z,1.47
2023-01-29T09:48:20.123Z,1.27
2023-01-29T09:53:32.648Z,1.03
2023-01-29T09:58:37.929Z,0.77
2023-01-29T10:04:13.739Z,0.63
2023-01-29T10:09:27.461Z,0.53
2023-01-29T10:14:39.486Z,0.51
2023-01-29T10:20:02.555Z,0.58
2023-01-29T10:25:09.183Z,0.58
2023-01-29T10:30:38.514Z,0.57
2023-01-29T10:35:55.896Z,0.58
2023-01-29T10:41:04.447Z,0.56
2023-01-29T10:46:14.345Z,0.58
2023-01-29T10:51:38.714Z,0.55
2023-01-29T10:57:11.432Z,0.48
2023-01-29T11:02:17.800Z,0.42
2023-01-29T11:07:23.225Z,0.39
2023-01-29T11:12:30.960Z,0.37
2023-01-29T11:17:32.884Z,0.41
2023-01-29T11:22:34.560Z,0.39
2023-01-29T11:27:44.257Z,0.42
2023-01-29T11:32:51.861Z,0.43
2023-01-29T11:38:07.293Z,0.51
2023-01-29T11:43:18.191Z,0.59
2023-01-29T11:48:23.104Z,0.66
2023-01-29T11:53:36.541Z,0.70
2023-01-29T11:58:41.864Z,0.75
2023-01-29T12:03:55.021Z,0.81
2023-01-29T12:09:00.169Z,0.87
2023-01-29T12:14:05.750Z,0.93
2023-01-29T12:19:07.434Z,1.02
2023-01-29T12:24:28.484Z,1.09
2023-01-29T12:30:03.833Z,1.17
2023-01-29T12:35:16.431Z,1.31
2023-01-29T12:40:20.298Z,1.33
2023-01-29T12:45:25.018Z,1.32
2023-01-29T12:50:30.015Z,1.31
2023-01-29T12:55:44.331Z,1.23
2023-01-29T13:00:51.384Z,1.23
2023-01-29T13:05:57.225Z,1.23
2023-01-29T13:11:04.317Z,1.22
2023-01-29T13:16:12.326Z,1.18
2023-01-29T13:21:19.278Z,1.10
2023-01-29T13:26:22.496Z,0.99
2023-01-29T13:31:33.056Z,0.88
2023-01-29T13:36:41.076Z,0.84
2023-01-29T13:41:43.711Z,0.80
2023-01-29T13:46:51.708Z,0.79
2023-01-29T13:51:54.111Z,0.80
2023-01-29T13:56:55.732Z,0.79
2023-01-29T14:02:03.796Z,0.74
2023-01-29T14:07:43.913Z,0.64
2023-01-29T14:12:46.589Z,0.50
2023-01-29T14:18:21.167Z,0.40
2023-01-29T14:23:25.249Z,0.30
2023-01-29T14:28:30.725Z,0.19
2023-01-29T14:33:39.161Z,0.06
2023-01-29T14:38:48.664Z,-0.05
2023-01-29T14:43:50.472Z,-0.11
2023-01-29T14:48:53.208Z,-0.17
2023-01-29T14:54:06.444Z,-0.25
2023-01-29T14:59:20.078Z,-0.35
2023-01-29T15:04:29.840Z,-0.45
2023-01-29T15:09:36.857Z,-0.54
2023-01-29T15:14:46.953Z,-0.58
2023-01-29T15:19:49.775Z,-0.53
2023-01-29T15:25:14.865Z,-0.43
2023-01-29T15:30:23.651Z,-0.37
2023-01-29T15:35:30.976Z,-0.39
2023-01-29T15:40:34.240Z,-0.45
2023-01-29T15:45:40.807Z,-0.54
2023-01-29T15:50:43.508Z,-0.61
2023-01-29T15:55:47.464Z,-0.70
2023-01-29T16:00:54.427Z,-0.78
2023-01-29T16:05:56.815Z,-0.86
2023-01-29T16:11:01.864Z,-0.87
2023-01-29T16:16:04.880Z,-0.85
2023-01-29T16:21:12.907Z,-0.86
2023-01-29T16:26:19.866Z,-0.88
2023-01-29T16:31:28.943Z,-0.91
2023-01-29T16:36:31.088Z,-0.96
2023-01-29T16:41:39.009Z,-1.01
2023-01-29T16:46:53.076Z,-1.04
2023-01-29T16:51:56.505Z,-1.02
2023-01-29T16:57:00.398Z,-0.98
2023-01-29T17:02:03.635Z,-0.95
2023-01-29T17:07:05.345Z,-0.91
2023-01-29T17:12:16.688Z,-0.90
2023-01-29T17:17:18.941Z,-0.87
2023-01-29T17:22:20.578Z,-0.78
2023-01-29T17:27:23.195Z,-0.66
2023-01-29T17:32:25.596Z,-0.57
2023-01-29T17:37:45.999Z,-0.53
2023-01-29T17:42:48.882Z,-0.55
2023-01-29T17:47:50.771Z,-0.58
2023-01-29T17:52:53.864Z,-0.65
2023-01-29T17:57:55.605Z,-0.69
2023-01-29T18:02:58.122Z,-0.69
2023-01-29T18:07:59.885Z,-0.68
2023-01-29T18:13:01.942Z,-0.70
2023-01-29T18:18:04.999Z,-0.74
2023-01-29T18:23:08.307Z,-0.78
2023-01-29T18:28:14.879Z,-0.78
2023-01-29T18:33:18.516Z,-0.78
2023-01-29T18:38:23.034Z,-0.79
2023-01-29T18:43:26.313Z,-0.79
2023-01-29T18:48:29.663Z,-0.77
2023-01-29T18:53:33.533Z,-0.74
2023-01-29T18:58:36.909Z,-0.73
2023-01-29T19:03:40.525Z,-0.74
2023-01-29T19:08:43.247Z,-0.79
2023-01-29T19:13:46.261Z,-0.81
2023-01-29T19:18:48.549Z,-0.82
2023-01-29T19:23:50.265Z,-0.88
2023-01-29T19:28:52.220Z,-0.92
2023-01-29T19:33:54.309Z,-0.92
2023-01-29T19:38:56.706Z,-0.92
2023-01-29T19:43:59.102Z,-0.97
2023-01-29T19:49:00.917Z,-1.07
2023-01-29T19:54:02.671Z,-1.11
2023-01-29T19:59:07.511Z,-1.11
2023-01-29T20:04:29.482Z,-1.14
2023-01-29T20:09:31.451Z,-1.22
2023-01-29T20:14:33.121Z,-1.29
2023-01-29T20:19:34.904Z,-1.33
2023-01-29T20:24:39.555Z,-1.35
2023-01-29T20:29:41.557Z,-1.40
2023-01-29T20:34:43.432Z,-1.45
2023-01-29T20:39:45.382Z,-1.49
2023-01-29T20:44:47.316Z,-1.45
2023-01-29T20:49:49.125Z,-1.41
2023-01-29T20:54:50.854Z,-1.41
2023-01-29T20:59:52.899Z,-1.40
2023-01-29T21:04:55.033Z,-1.43
2023-01-29T21:09:56.752Z,-1.46
2023-01-29T21:14:58.514Z,-1.47
2023-01-29T21:20:00.202Z,-1.49
2023-01-29T21:25:01.993Z,-1.56
2023-01-29T21:30:04.872Z,-1.64
2023-01-29T21:35:08.117Z,-1.69
2023-01-29T21:40:11.034Z,-1.71
2023-01-29T21:45:12.843Z,-1.76
2023-01-29T21:50:14.899Z,-1.79
2023-01-29T21:55:17.068Z,-1.86
2023-01-29T22:00:19.494Z,-1.93
2023-01-29T22:05:21.414Z,-1.95
2023-01-29T22:10:23.430Z,-1.89
2023-01-29T22:15:26.772Z,-1.83
2023-01-29T22:20:30.739Z,-1.74
2023-01-29T22:25:33.490Z,-1.70
2023-01-29T22:30:35.254Z,-1.71
2023-01-29T22:35:37.331Z,-1.70
2023-01-29T22:40:39.207Z,-1.67
2023-01-29T22:45:41.066Z,-1.66
2023-01-29T22:50:42.752Z,-1.64
2023-01-29T22:55:44.443Z,-1.63
2023-01-29T23:00:50.121Z,-1.62
2023-01-29T23:05:51.918Z,-1.57
2023-01-29T23:10:53.999Z,-1.51
2023-01-29T23:15:59.664Z,-1.49
2023-01-29T23:21:01.933Z,-1.51
2023-01-29T23:26:24.480Z,-1.54
2023-01-29T23:31:26.584Z,-1.59
2023-01-29T23:36:28.582Z,-1.64
2023-01-29T23:41:30.543Z,-1.66
2023-01-29T23:46:32.617Z,-1.69
2023-01-29T23:51:34.588Z,-1.74
2023-01-29T23:56:36.252Z,-1.80
